Time;durP1;ratioP1;P1;durP2;ratioP2;P2;SDS_P1;SDS_P2;PMS_P1;PMS_P2;Temp;Humidity;BMP_temperature;BMP_pressure;BME280_temperature;BME280_humidity;BME280_pressure;Samples;Min_cycle;Max_cycle;Signal;HPM_P1;HPM_P2
2022/04/27 00:02:20;;;;;;;7.43;5.85;;;8.30;99.90;;;;;;2214722;64;20176;-66
2022/04/27 00:04:57;;;;;;;9.75;6.40;;;8.20;99.90;;;;;;2214443;64;20184;-67
2022/04/27 00:07:33;;;;;;;9.90;7.35;;;8.20;99.90;;;;;;2213265;64;20176;-68
2022/04/27 00:10:10;;;;;;;10.05;5.97;;;8.20;99.90;;;;;;2213754;64;20583;-67
2022/04/27 00:12:49;;;;;;;11.10;6.35;;;8.30;99.90;;;;;;2213437;64;20733;-67
2022/04/27 00:15:28;;;;;;;9.18;6.20;;;8.20;99.90;;;;;;2218125;64;20941;-68
2022/04/27 00:18:05;;;;;;;10.50;6.00;;;8.20;99.90;;;;;;2214388;64;20176;-67
2022/04/27 00:20:42;;;;;;;10.85;7.40;;;8.20;99.90;;;;;;2213653;64;20301;-69
2022/04/27 00:23:21;;;;;;;9.00;6.45;;;8.20;99.90;;;;;;2211205;64;20172;-67
2022/04/27 00:26:00;;;;;;;10.65;6.72;;;8.20;99.90;;;;;;2210083;64;20321;-68
2022/04/27 00:28:38;;;;;;;10.90;7.53;;;8.20;99.90;;;;;;2214777;64;20198;-67
2022/04/27 00:31:18;;;;;;;10.95;7.22;;;8.20;99.90;;;;;;2210239;64;20172;-67
2022/04/27 00:34:00;;;;;;;14.82;7.43;;;8.20;99.90;;;;;;2211944;64;20211;-68
2022/04/27 00:36:37;;;;;;;9.93;7.07;;;8.30;99.90;;;;;;2212017;64;20161;-67
2022/04/27 00:39:16;;;;;;;15.05;7.75;;;8.40;99.90;;;;;;2212526;64;20252;-67
2022/04/27 00:42:02;;;;;;;12.65;7.72;;;9.30;99.90;;;;;;2214669;64;20687;-67
2022/04/27 00:44:43;;;;;;;10.50;7.35;;;8.40;99.90;;;;;;2213751;64;20325;-67
2022/04/27 00:47:24;;;;;;;9.45;6.70;;;8.40;99.90;;;;;;2214065;64;20671;-67
2022/04/27 00:50:03;;;;;;;13.50;7.07;;;8.40;99.90;;;;;;2214535;64;20376;-66
2022/04/27 00:52:41;;;;;;;10.45;7.00;;;8.40;99.90;;;;;;2214744;64;20172;-67
2022/04/27 00:55:21;;;;;;;14.82;7.13;;;8.40;99.90;;;;;;2214234;64;20176;-67
2022/04/27 00:57:59;;;;;;;9.88;7.25;;;8.40;99.90;;;;;;2213659;64;20180;-66
2022/04/27 01:00:39;;;;;;;10.43;7.55;;;8.40;99.90;;;;;;2214269;64;20200;-67
2022/04/27 01:03:16;;;;;;;14.75;8.15;;;8.40;99.90;;;;;;2214290;64;20206;-68
2022/04/27 01:05:55;;;;;;;13.23;6.63;;;8.50;99.90;;;;;;2212124;64;20263;-67
2022/04/27 01:08:34;;;;;;;12.20;8.05;;;8.50;99.90;;;;;;2214135;64;20164;-68
2022/04/27 01:11:12;;;;;;;11.30;6.60;;;8.50;99.90;;;;;;2210696;64;20278;-67
2022/04/27 01:13:57;;;;;;;11.27;6.25;;;8.50;99.90;;;;;;2213725;64;20276;-67
2022/04/27 01:16:38;;;;;;;8.23;4.78;;;8.70;99.90;;;;;;2213666;64;20198;-66
2022/04/27 01:19:17;;;;;;;8.30;5.05;;;8.60;99.90;;;;;;2209280;64;20654;-67
2022/04/27 01:21:54;;;;;;;5.53;4.15;;;8.70;99.90;;;;;;2214424;64;20803;-66
2022/04/27 01:24:31;;;;;;;6.55;4.20;;;8.60;99.90;;;;;;2212035;64;20180;-67
2022/04/27 01:27:09;;;;;;;4.97;3.50;;;8.70;99.90;;;;;;2213937;64;20307;-67
2022/04/27 01:29:48;;;;;;;8.32;3.72;;;8.70;99.90;;;;;;2214289;64;20529;-68
2022/04/27 01:32:27;;;;;;;8.07;3.13;;;8.70;99.90;;;;;;2214764;64;20237;-68
2022/04/27 01:35:13;;;;;;;7.78;3.72;;;8.70;99.90;;;;;;2215026;64;20183;-68
2022/04/27 01:38:02;;;;;;;7.60;3.25;;;8.80;99.90;;;;;;2214748;64;20246;-67
2022/04/27 01:40:40;;;;;;;5.15;3.40;;;8.80;99.90;;;;;;2215498;64;20172;-67
2022/04/27 01:43:24;;;;;;;5.28;2.83;;;8.80;99.90;;;;;;2215167;64;20235;-67
2022/04/27 01:46:05;;;;;;;3.67;2.90;;;8.80;99.90;;;;;;2215056;64;20220;-67
2022/04/27 01:48:46;;;;;;;6.88;3.95;;;8.80;99.90;;;;;;2215204;64;20340;-66
2022/04/27 01:54:22;;;;;;;7.30;3.90;;;8.90;99.90;;;;;;2215278;64;20168;-67
2022/04/27 01:57:02;;;;;;;5.10;3.75;;;8.90;99.90;;;;;;2214154;64;20176;-66
2022/04/27 01:59:41;;;;;;;6.75;3.38;;;8.90;99.90;;;;;;2214407;64;20209;-66
2022/04/27 02:02:20;;;;;;;5.93;3.70;;;8.90;99.90;;;;;;2215542;64;20708;-65
2022/04/27 02:04:57;;;;;;;5.65;3.45;;;8.90;99.90;;;;;;2223185;64;20194;-67
2022/04/27 02:07:34;;;;;;;6.05;3.38;;;8.90;99.90;;;;;;2208241;65;20185;-66
2022/04/27 02:10:12;;;;;;;3.95;3.20;;;8.90;99.90;;;;;;2213455;64;20278;-65
2022/04/27 02:12:51;;;;;;;6.53;4.20;;;8.90;99.90;;;;;;2215740;64;20258;-67
2022/04/27 02:15:28;;;;;;;7.28;3.15;;;8.90;99.90;;;;;;2213738;64;20177;-67
2022/04/27 02:18:06;;;;;;;5.60;3.40;;;8.90;99.90;;;;;;2208011;65;20705;-68
2022/04/27 02:20:46;;;;;;;8.70;4.00;;;8.90;99.90;;;;;;2208192;65;20185;-66
2022/04/27 02:23:31;;;;;;;4.95;3.42;;;8.90;99.90;;;;;;2213736;64;20350;-67
2022/04/27 02:26:08;;;;;;;5.38;3.05;;;8.90;99.90;;;;;;2215061;64;20949;-68
2022/04/27 02:28:45;;;;;;;4.47;3.22;;;8.90;99.90;;;;;;2214979;64;20197;-66
2022/04/27 02:31:22;;;;;;;3.35;2.88;;;9.00;99.90;;;;;;2215399;64;20188;-66
2022/04/27 02:33:59;;;;;;;4.07;3.03;;;8.90;99.90;;;;;;2212002;64;20194;-67
2022/04/27 02:36:35;;;;;;;4.32;3.10;;;8.90;99.90;;;;;;2215596;64;20261;-67
2022/04/27 02:39:12;;;;;;;6.57;2.88;;;8.90;99.90;;;;;;2215349;64;20183;-66
2022/04/27 02:41:50;;;;;;;7.05;3.25;;;8.80;99.90;;;;;;2214766;64;20226;-66
2022/04/27 02:44:30;;;;;;;5.47;3.10;;;8.90;99.90;;;;;;2212256;64;20304;-66
2022/04/27 02:47:07;;;;;;;4.95;3.22;;;8.90;99.90;;;;;;2215104;64;20188;-65
2022/04/27 02:52:40;;;;;;;5.45;2.90;;;8.80;99.80;;;;;;2215447;64;20168;-66
2022/04/27 02:55:22;;;;;;;6.07;2.95;;;8.90;99.80;;;;;;2215280;64;20188;-67
2022/04/27 02:58:02;;;;;;;4.47;3.10;;;8.80;99.70;;;;;;2214125;64;20722;-66
2022/04/27 03:00:39;;;;;;;3.08;2.70;;;8.80;99.50;;;;;;2213204;64;20202;-66
2022/04/27 03:03:18;;;;;;;4.07;2.92;;;8.80;99.50;;;;;;2214322;64;20284;-68
2022/04/27 03:05:59;;;;;;;4.65;2.90;;;8.80;99.40;;;;;;2214929;64;20176;-67
2022/04/27 03:08:41;;;;;;;4.90;3.17;;;8.80;99.40;;;;;;2210753;64;20277;-67
2022/04/27 03:11:17;;;;;;;5.60;2.80;;;8.80;99.30;;;;;;2215409;64;20249;-66
2022/04/27 03:13:55;;;;;;;4.00;2.50;;;8.80;99.20;;;;;;2214373;64;20262;-67
2022/04/27 03:16:35;;;;;;;4.43;2.47;;;8.80;99.10;;;;;;2214667;64;20172;-68
2022/04/27 03:19:16;;;;;;;6.53;2.83;;;8.70;98.70;;;;;;2214858;64;20172;-67
2022/04/27 03:21:56;;;;;;;5.65;2.13;;;8.70;98.40;;;;;;2215363;64;20195;-67
2022/04/27 03:24:36;;;;;;;4.72;2.40;;;8.70;98.10;;;;;;2215010;64;20188;-68
2022/04/27 03:27:14;;;;;;;3.22;2.20;;;8.70;97.80;;;;;;2213952;64;20190;-66
2022/04/27 03:29:53;;;;;;;3.47;2.38;;;8.70;97.70;;;;;;2211415;64;20216;-67
2022/04/27 03:32:33;;;;;;;4.78;2.90;;;8.70;97.50;;;;;;2214801;64;20247;-67
2022/04/27 03:35:11;;;;;;;5.65;2.15;;;8.70;97.50;;;;;;2215144;64;20187;-67
2022/04/27 03:37:52;;;;;;;5.80;2.55;;;8.70;97.50;;;;;;2214068;64;20830;-67
2022/04/27 03:40:32;;;;;;;3.45;2.60;;;8.60;97.40;;;;;;2215213;64;20196;-68
2022/04/27 03:43:12;;;;;;;6.22;3.03;;;8.70;97.30;;;;;;2215993;64;20642;-68
2022/04/27 03:45:51;;;;;;;4.85;3.22;;;8.70;97.20;;;;;;2218583;64;20848;-67
2022/04/27 03:48:31;;;;;;;6.07;3.30;;;8.60;97.20;;;;;;2217851;64;20175;-67
2022/04/27 03:51:12;;;;;;;3.28;2.92;;;8.60;97.40;;;;;;2214910;64;20347;-68
2022/04/27 03:53:53;;;;;;;6.85;3.35;;;8.60;97.50;;;;;;2213113;64;20252;-67
2022/04/27 03:56:32;;;;;;;4.38;3.40;;;8.60;97.40;;;;;;2215157;64;20191;-67
2022/04/27 03:59:15;;;;;;;5.20;3.25;;;8.60;97.50;;;;;;2214115;64;20669;-68
2022/04/27 04:01:54;;;;;;;4.47;3.60;;;8.50;97.60;;;;;;2214065;64;20184;-67
2022/04/27 04:04:31;;;;;;;5.10;3.42;;;8.50;97.80;;;;;;2213701;64;20631;-66
2022/04/27 04:07:07;;;;;;;4.65;2.95;;;8.50;97.90;;;;;;2214186;64;20288;-66
2022/04/27 04:09:44;;;;;;;4.78;3.63;;;8.50;97.90;;;;;;2214538;64;20642;-67
2022/04/27 04:12:21;;;;;;;4.07;2.97;;;8.40;97.80;;;;;;2214625;64;20288;-67
2022/04/27 04:14:59;;;;;;;5.20;2.72;;;8.40;97.80;;;;;;2214217;64;20334;-66
2022/04/27 04:17:44;;;;;;;4.78;3.42;;;8.40;97.60;;;;;;2218169;64;20624;-66
2022/04/27 04:20:25;;;;;;;6.07;4.15;;;8.40;97.40;;;;;;2214421;64;20721;-65
2022/04/27 04:23:05;;;;;;;5.72;3.63;;;8.40;97.30;;;;;;2214567;64;20189;-67
2022/04/27 04:28:38;;;;;;;4.60;3.42;;;8.40;97.30;;;;;;2208914;64;20176;-66
2022/04/27 04:31:17;;;;;;;8.60;3.50;;;8.50;97.50;;;;;;2214411;64;20160;-67
2022/04/27 04:33:55;;;;;;;6.97;3.83;;;8.50;97.60;;;;;;2214522;64;20164;-67
2022/04/27 04:36:37;;;;;;;5.53;3.38;;;8.40;97.70;;;;;;2214597;64;20589;-67
2022/04/27 04:39:14;;;;;;;6.38;3.95;;;8.50;97.80;;;;;;2213339;64;20332;-66
2022/04/27 04:41:52;;;;;;;5.50;3.58;;;8.50;97.90;;;;;;2214520;64;20211;-66
2022/04/27 04:44:32;;;;;;;5.82;3.65;;;8.40;98.00;;;;;;2214057;64;20194;-67
2022/04/27 04:47:12;;;;;;;5.15;3.75;;;8.50;98.00;;;;;;2214443;64;20662;-67
2022/04/27 04:49:49;;;;;;;6.07;3.88;;;8.50;98.10;;;;;;2215260;64;20835;-66
2022/04/27 04:52:30;;;;;;;4.82;4.00;;;8.50;98.10;;;;;;2214650;64;20180;-67
2022/04/27 04:55:09;;;;;;;8.82;4.30;;;8.80;98.40;;;;;;2213054;64;20172;-65
2022/04/27 04:57:45;;;;;;;8.63;4.65;;;8.50;98.40;;;;;;2214271;64;20168;-67
2022/04/27 05:00:22;;;;;;;6.88;3.75;;;8.50;98.30;;;;;;2214049;64;20164;-67
2022/04/27 05:02:59;;;;;;;8.50;3.95;;;8.50;98.20;;;;;;2214499;64;20172;-67
2022/04/27 05:05:40;;;;;;;8.68;5.28;;;8.50;98.20;;;;;;2214647;64;20180;-68
2022/04/27 05:08:19;;;;;;;5.22;4.25;;;8.50;98.20;;;;;;2215509;64;20204;-67
2022/04/27 05:10:57;;;;;;;5.22;4.15;;;8.50;98.10;;;;;;2215224;64;20304;-66
2022/04/27 05:13:38;;;;;;;5.47;4.45;;;8.50;98.00;;;;;;2215296;64;20618;-68
2022/04/27 05:16:15;;;;;;;4.53;3.60;;;8.50;98.10;;;;;;2213060;64;20180;-67
2022/04/27 05:18:53;;;;;;;4.70;3.85;;;8.60;98.00;;;;;;2215085;64;20184;-67
2022/04/27 05:21:33;;;;;;;6.05;3.42;;;8.60;97.90;;;;;;2217812;64;20212;-67
2022/04/27 05:24:13;;;;;;;4.93;3.75;;;8.60;97.50;;;;;;2215618;64;20235;-67
2022/04/27 05:26:51;;;;;;;7.25;3.88;;;8.60;97.30;;;;;;2215451;64;20558;-67
2022/04/27 05:32:27;;;;;;;5.65;3.17;;;8.70;96.90;;;;;;2211882;64;20687;-67
2022/04/27 05:35:07;;;;;;;2.75;2.47;;;8.80;96.20;;;;;;2214919;64;20205;-67
2022/04/27 05:37:45;;;;;;;5.38;2.20;;;8.80;94.90;;;;;;2215287;64;20156;-66
2022/04/27 05:40:25;;;;;;;5.43;2.42;;;9.00;94.10;;;;;;2211672;64;20164;-66
2022/04/27 05:43:05;;;;;;;5.28;2.25;;;8.90;93.50;;;;;;2215688;64;20175;-67
2022/04/27 05:45:45;;;;;;;4.50;2.60;;;8.90;92.80;;;;;;2214492;64;20533;-67
2022/04/27 05:48:24;;;;;;;6.05;2.53;;;8.90;92.40;;;;;;2215086;64;20235;-67
2022/04/27 05:51:03;;;;;;;3.80;2.00;;;9.10;92.00;;;;;;2215315;64;20297;-68
2022/04/27 05:53:44;;;;;;;2.92;2.47;;;9.10;91.50;;;;;;2215910;64;20344;-68
2022/04/27 05:56:25;;;;;;;3.03;2.72;;;9.40;91.40;;;;;;2215682;64;20204;-68
2022/04/27 05:59:06;;;;;;;3.33;2.67;;;9.20;91.20;;;;;;2215369;64;20203;-68
2022/04/27 06:01:46;;;;;;;4.70;2.90;;;9.20;91.00;;;;;;2215195;64;20301;-67
2022/04/27 06:04:26;;;;;;;4.15;2.95;;;9.20;91.00;;;;;;2214097;64;20205;-67
2022/04/27 06:07:08;;;;;;;4.28;2.97;;;9.30;91.00;;;;;;2213877;64;20172;-66
2022/04/27 06:09:48;;;;;;;4.95;3.30;;;9.30;91.00;;;;;;2215087;64;20260;-67
2022/04/27 06:12:34;;;;;;;4.68;2.72;;;9.30;91.10;;;;;;2215153;64;20160;-66
2022/04/27 06:15:17;;;;;;;2.17;1.98;;;9.30;90.90;;;;;;2215371;64;20193;-66
2022/04/27 06:17:59;;;;;;;7.15;1.98;;;9.40;90.60;;;;;;2215496;64;20625;-67
2022/04/27 06:20:35;;;;;;;6.40;3.30;;;9.40;90.30;;;;;;2211782;64;20256;-67
2022/04/27 06:23:13;;;;;;;5.82;2.97;;;9.40;90.00;;;;;;2215256;64;20864;-67
2022/04/27 06:25:51;;;;;;;5.28;2.85;;;9.50;90.10;;;;;;2216660;64;20295;-66
2022/04/27 06:28:29;;;;;;;3.83;2.58;;;9.50;89.90;;;;;;2217914;64;20211;-67
2022/04/27 06:31:09;;;;;;;5.07;2.70;;;9.60;89.80;;;;;;2215117;64;20164;-67
2022/04/27 06:33:47;;;;;;;3.70;2.60;;;9.60;89.60;;;;;;2215346;64;20189;-67
2022/04/27 06:36:26;;;;;;;3.75;2.70;;;9.70;88.90;;;;;;2214764;64;20683;-68
2022/04/27 06:39:07;;;;;;;4.50;2.20;;;9.70;88.70;;;;;;2214547;64;20242;-67
2022/04/27 06:41:44;;;;;;;5.78;2.45;;;9.80;88.90;;;;;;2215404;64;20253;-67
2022/04/27 06:44:24;;;;;;;3.85;2.13;;;9.80;87.20;;;;;;2214758;64;20201;-67
2022/04/27 06:47:03;;;;;;;4.40;2.20;;;9.90;86.10;;;;;;2214626;64;20176;-67
2022/04/27 06:49:44;;;;;;;2.13;1.92;;;10.00;85.00;;;;;;2215336;64;20296;-66
2022/04/27 06:52:24;;;;;;;3.95;1.88;;;10.00;84.10;;;;;;2213364;64;20196;-68
2022/04/27 06:55:05;;;;;;;4.22;2.10;;;10.10;83.10;;;;;;2215329;64;20168;-67
2022/04/27 06:57:42;;;;;;;2.92;1.92;;;10.20;82.60;;;;;;2209112;64;20277;-66
2022/04/27 07:00:21;;;;;;;2.97;2.20;;;10.20;82.60;;;;;;2210152;64;20193;-66
2022/04/27 07:02:58;;;;;;;2.92;1.70;;;10.20;81.90;;;;;;2215460;64;20195;-67
2022/04/27 07:05:35;;;;;;;4.68;2.00;;;10.30;81.60;;;;;;2215213;64;20244;-67
2022/04/27 07:08:13;;;;;;;5.93;1.77;;;10.30;81.60;;;;;;2215399;64;20197;-67
2022/04/27 07:10:52;;;;;;;3.92;1.73;;;10.30;80.70;;;;;;2215164;64;20297;-66
2022/04/27 07:13:29;;;;;;;2.70;2.25;;;10.40;79.70;;;;;;2214744;64;20176;-66
2022/04/27 07:16:06;;;;;;;4.88;2.03;;;10.50;79.70;;;;;;2215416;64;20242;-67
2022/04/27 07:18:43;;;;;;;3.03;1.75;;;10.50;79.70;;;;;;2215411;64;20300;-66
2022/04/27 07:21:25;;;;;;;3.22;2.00;;;10.60;79.20;;;;;;2218048;64;20176;-69
2022/04/27 07:24:02;;;;;;;2.92;2.13;;;10.60;78.40;;;;;;2221108;64;20349;-68
2022/04/27 07:26:39;;;;;;;3.00;1.80;;;11.00;78.20;;;;;;2223021;64;20163;-66
2022/04/27 07:29:17;;;;;;;2.95;1.63;;;10.60;77.20;;;;;;2221079;64;20282;-67
2022/04/27 07:31:55;;;;;;;2.78;1.90;;;10.70;76.80;;;;;;2214446;64;20209;-67
2022/04/27 07:34:34;;;;;;;3.67;2.08;;;10.70;76.20;;;;;;2213839;64;20706;-66
2022/04/27 07:37:11;;;;;;;8.43;2.38;;;10.70;76.40;;;;;;2214744;64;20221;-68
2022/04/27 07:39:49;;;;;;;3.30;1.70;;;10.70;76.40;;;;;;2215477;64;20638;-67
2022/04/27 07:42:29;;;;;;;3.67;2.42;;;10.70;75.90;;;;;;2214828;64;20789;-67
2022/04/27 07:45:07;;;;;;;5.55;2.00;;;10.70;75.70;;;;;;2210866;64;20352;-67
2022/04/27 07:47:46;;;;;;;3.70;1.80;;;10.70;75.50;;;;;;2212946;64;20674;-67
2022/04/27 07:50:24;;;;;;;3.72;1.77;;;10.70;76.00;;;;;;2212616;64;20253;-67
2022/04/27 07:53:03;;;;;;;5.70;1.92;;;10.70;75.40;;;;;;2213583;64;20227;-68
2022/04/27 07:56:00;;;;;;;4.10;2.10;;;10.70;75.20;;;;;;2212387;64;20201;-67
2022/04/27 07:58:38;;;;;;;4.57;2.35;;;10.60;75.00;;;;;;2214080;64;20171;-67
2022/04/27 08:01:19;;;;;;;4.03;2.33;;;10.60;76.00;;;;;;2214380;64;20186;-67
2022/04/27 08:03:57;;;;;;;4.38;2.20;;;10.50;77.90;;;;;;2213618;64;20194;-67
2022/04/27 08:06:36;;;;;;;4.50;2.15;;;10.60;78.80;;;;;;2214125;64;20265;-68
2022/04/27 08:09:16;;;;;;;8.75;2.97;;;10.60;79.00;;;;;;2212230;64;20169;-68
2022/04/27 08:11:54;;;;;;;6.60;2.53;;;10.60;79.80;;;;;;2211034;64;20243;-68
2022/04/27 08:14:36;;;;;;;6.07;2.70;;;10.60;80.90;;;;;;2210874;64;20385;-67
2022/04/27 08:17:13;;;;;;;7.50;2.92;;;10.60;81.70;;;;;;2211967;64;20172;-67
2022/04/27 08:21:13;;;;;;;6.68;3.03;;;10.60;82.70;;;;;;2208897;64;20220;-67
2022/04/27 08:22:51;;;;;;;6.22;2.70;;;10.60;82.60;;;;;;2212597;64;20232;-67
2022/04/27 08:25:28;;;;;;;8.90;2.67;;;10.60;82.30;;;;;;2212925;64;20245;-67
2022/04/27 08:28:10;;;;;;;4.35;2.47;;;10.60;82.10;;;;;;2211654;64;20176;-68
2022/04/27 08:30:47;;;;;;;10.45;3.33;;;10.60;82.50;;;;;;2211068;64;20176;-66
2022/04/27 08:33:25;;;;;;;8.13;2.70;;;10.90;82.80;;;;;;2212839;64;20157;-67
2022/04/27 08:36:03;;;;;;;6.07;3.15;;;10.70;83.10;;;;;;2213414;64;20410;-67
2022/04/27 08:38:40;;;;;;;10.15;3.17;;;10.80;83.80;;;;;;2211298;64;20176;-67
2022/04/27 08:41:19;;;;;;;6.28;2.80;;;10.80;84.40;;;;;;2208494;64;20326;-67
2022/04/27 08:43:59;;;;;;;8.20;4.03;;;10.80;84.70;;;;;;2211124;64;20235;-67
2022/04/27 08:47:06;;;;;;;8.50;2.50;;;11.00;85.30;;;;;;2211313;64;20167;-69
2022/04/27 08:50:27;;;;;;;12.63;3.30;;;11.00;85.60;;;;;;2210575;64;20265;-68
2022/04/27 08:53:06;;;;;;;6.72;2.78;;;11.10;85.70;;;;;;2211662;64;21013;-66
2022/04/27 08:55:52;;;;;;;7.85;2.80;;;11.10;85.80;;;;;;2210772;64;20250;-68
2022/04/27 08:58:33;;;;;;;7.53;2.88;;;11.30;86.00;;;;;;2211275;64;20228;-68
2022/04/27 09:01:14;;;;;;;9.15;3.05;;;11.30;86.00;;;;;;2211113;64;20506;-67
2022/04/27 09:04:13;;;;;;;8.45;3.33;;;11.30;85.60;;;;;;2209710;64;20235;-68
2022/04/27 09:06:51;;;;;;;;;;;11.30;85.50;;;;;;2211288;64;20276;-68
2022/04/27 09:09:39;;;;;;;5.82;2.47;;;11.20;85.40;;;;;;2210559;64;20100;-68
2022/04/27 09:12:19;;;;;;;4.88;2.67;;;11.10;85.70;;;;;;2210825;64;20389;-66
2022/04/27 09:15:08;;;;;;;8.32;2.92;;;11.10;85.90;;;;;;2209111;64;20255;-69
2022/04/27 09:20:54;;;;;;;7.68;2.90;;;11.10;86.60;;;;;;2209961;64;20537;-71
2022/04/27 09:23:38;;;;;;;8.02;2.58;;;11.00;86.90;;;;;;2211302;64;20646;-73
2022/04/27 09:26:19;;;;;;;7.22;3.20;;;11.00;86.90;;;;;;2211410;64;20225;-70
2022/04/27 09:28:59;;;;;;;7.72;3.15;;;11.00;86.90;;;;;;2210869;64;20204;-70
2022/04/27 09:31:38;;;;;;;9.75;2.97;;;11.00;87.30;;;;;;2209732;64;20216;-72
2022/04/27 09:34:31;;;;;;;7.30;2.70;;;10.90;87.00;;;;;;2210964;64;20175;-69
2022/04/27 09:37:24;;;;;;;7.47;3.33;;;10.80;87.20;;;;;;2209403;64;20176;-69
2022/04/27 09:40:09;;;;;;;8.82;2.83;;;10.80;87.80;;;;;;2211495;64;20192;-70
2022/04/27 09:42:46;;;;;;;9.63;3.20;;;10.80;87.80;;;;;;2211123;64;20231;-71
2022/04/27 09:45:27;;;;;;;8.60;3.38;;;10.70;88.10;;;;;;2210633;64;20378;-70
2022/04/27 09:48:11;;;;;;;10.27;4.05;;;11.20;88.90;;;;;;2209938;64;20231;-68
2022/04/27 09:50:55;;;;;;;8.27;3.17;;;10.70;88.90;;;;;;2210489;64;20698;-69
2022/04/27 09:53:35;;;;;;;6.90;3.10;;;10.80;89.20;;;;;;2211218;64;20259;-68
2022/04/27 09:56:13;;;;;;;5.53;2.63;;;10.90;89.40;;;;;;2211006;64;20304;-67
2022/04/27 09:58:51;;;;;;;7.32;3.33;;;10.80;88.90;;;;;;2210635;64;20239;-69
2022/04/27 10:01:28;;;;;;;10.82;2.58;;;10.70;88.50;;;;;;2211683;64;20164;-70
2022/04/27 10:04:10;;;;;;;8.25;3.03;;;10.70;88.30;;;;;;2211596;64;20172;-69
2022/04/27 10:06:49;;;;;;;11.80;3.53;;;10.80;88.60;;;;;;2211578;64;20199;-69
2022/04/27 10:09:29;;;;;;;11.82;3.25;;;10.70;88.70;;;;;;2209864;64;20341;-69
2022/04/27 10:12:13;;;;;;;10.13;2.75;;;10.70;89.00;;;;;;2211690;64;20340;-70
2022/04/27 10:14:53;;;;;;;6.97;2.67;;;10.80;88.90;;;;;;2214960;64;20271;-70
2022/04/27 10:17:30;;;;;;;13.52;3.40;;;11.10;89.10;;;;;;2213886;64;20184;-71
2022/04/27 10:20:48;;;;;;;9.35;2.85;;;10.90;89.20;;;;;;2212342;64;20272;-69
2022/04/27 10:23:32;;;;;;;11.55;3.05;;;10.90;88.90;;;;;;2213717;64;20242;-71
2022/04/27 10:26:29;;;;;;;8.27;2.83;;;10.90;88.70;;;;;;2213184;64;20303;-71
2022/04/27 10:29:06;;;;;;;9.05;2.90;;;10.90;87.90;;;;;;2214269;64;20192;-70
2022/04/27 10:31:43;;;;;;;8.05;2.65;;;11.00;87.80;;;;;;2214685;64;20238;-71
2022/04/27 10:34:25;;;;;;;9.75;3.10;;;11.00;87.40;;;;;;2214184;64;20192;-71
2022/04/27 10:37:06;;;;;;;8.45;2.60;;;11.00;86.90;;;;;;2214089;64;20715;-70
2022/04/27 10:39:47;;;;;;;8.52;3.40;;;11.00;86.60;;;;;;2212978;64;20169;-70
2022/04/27 10:42:29;;;;;;;12.90;3.88;;;11.00;86.40;;;;;;2213773;64;20317;-67
2022/04/27 10:45:07;;;;;;;10.18;3.78;;;11.10;86.20;;;;;;2214371;64;20254;-72
2022/04/27 10:47:45;;;;;;;7.88;2.75;;;11.10;86.00;;;;;;2214348;64;20186;-70
2022/04/27 10:50:25;;;;;;;8.07;3.45;;;11.20;85.70;;;;;;2214483;64;20213;-70
2022/04/27 10:53:24;;;;;;;9.15;3.88;;;11.20;85.40;;;;;;2214448;64;20218;-70
2022/04/27 10:56:01;;;;;;;6.40;3.03;;;11.20;84.80;;;;;;2214758;64;20476;-69
2022/04/27 10:58:42;;;;;;;9.85;3.03;;;11.30;85.00;;;;;;2213083;64;20249;-72
2022/04/27 11:01:27;;;;;;;5.95;2.63;;;11.30;84.10;;;;;;2214758;64;20160;-69
2022/04/27 11:04:08;;;;;;;7.25;2.78;;;11.30;84.20;;;;;;2213388;64;20212;-69
2022/04/27 11:07:20;;;;;;;8.75;3.03;;;11.30;83.50;;;;;;2214592;64;20746;-70
2022/04/27 11:10:04;;;;;;;6.10;2.65;;;11.40;83.40;;;;;;2214233;64;20317;-67
2022/04/27 11:13:05;;;;;;;12.05;4.43;;;11.50;83.10;;;;;;2214480;64;20261;-69
2022/04/27 11:15:42;;;;;;;7.32;3.05;;;11.60;83.00;;;;;;2213670;64;20218;-69
2022/04/27 11:18:19;;;;;;;8.13;2.58;;;11.70;82.50;;;;;;2214430;64;20281;-69
2022/04/27 11:21:02;;;;;;;8.40;3.42;;;11.80;81.70;;;;;;2214008;64;20634;-68
2022/04/27 11:23:39;;;;;;;8.13;3.20;;;11.90;81.20;;;;;;2214369;64;20164;-70
2022/04/27 11:26:17;;;;;;;9.63;3.10;;;11.90;81.20;;;;;;2213636;64;20321;-69
2022/04/27 11:28:59;;;;;;;7.95;2.63;;;12.00;80.60;;;;;;2213714;64;20635;-69
2022/04/27 11:31:42;;;;;;;4.78;2.20;;;12.20;81.10;;;;;;2214223;64;20203;-69
2022/04/27 11:34:23;;;;;;;5.20;2.50;;;12.20;79.20;;;;;;2213130;64;20252;-69
2022/04/27 11:37:15;;;;;;;7.97;2.63;;;12.20;78.90;;;;;;2214388;64;20630;-67
2022/04/27 11:39:54;;;;;;;9.00;2.28;;;12.20;78.30;;;;;;2212235;64;20235;-68
2022/04/27 11:42:36;;;;;;;6.85;2.50;;;12.20;78.30;;;;;;2214454;64;20199;-69
2022/04/27 11:45:26;;;;;;;8.25;2.72;;;12.30;78.00;;;;;;2213039;64;20617;-70
2022/04/27 11:48:04;;;;;;;6.45;3.22;;;12.40;78.10;;;;;;2210939;64;20669;-68
2022/04/27 11:50:42;;;;;;;8.93;3.08;;;12.50;78.00;;;;;;2213847;64;20186;-69
2022/04/27 11:53:20;;;;;;;10.38;3.92;;;12.70;78.50;;;;;;2214278;64;20196;-70
2022/04/27 11:56:05;;;;;;;;;;;12.70;77.20;;;;;;2214007;64;20274;-70
2022/04/27 11:58:45;;;;;;;7.28;2.58;;;12.70;76.90;;;;;;2213548;64;20052;-66
2022/04/27 12:01:25;;;;;;;6.45;2.40;;;12.70;76.90;;;;;;2213065;64;20180;-69
2022/04/27 12:04:05;;;;;;;7.20;3.50;;;12.80;77.10;;;;;;2211601;64;20775;-72
2022/04/27 12:06:47;;;;;;;6.82;2.50;;;12.80;76.90;;;;;;2209079;64;20192;-69
2022/04/27 12:09:27;;;;;;;10.18;2.65;;;13.00;75.80;;;;;;2213197;64;20160;-70
2022/04/27 12:12:12;;;;;;;9.55;2.50;;;13.10;74.50;;;;;;2213044;64;20243;-69
2022/04/27 12:14:48;;;;;;;6.90;2.58;;;13.30;74.20;;;;;;2211476;64;20605;-71
2022/04/27 12:17:52;;;;;;;9.52;2.90;;;13.50;72.90;;;;;;2212610;64;20759;-70
2022/04/27 12:20:43;;;;;;;2.55;1.73;;;13.70;72.80;;;;;;2211641;64;20222;-69
2022/04/27 12:23:38;;;;;;;6.32;2.45;;;14.00;72.00;;;;;;2212940;64;20450;-70
2022/04/27 12:26:17;;;;;;;5.82;2.22;;;14.30;70.70;;;;;;2213554;64;20196;-70
2022/04/27 12:28:58;;;;;;;5.78;2.33;;;14.30;68.90;;;;;;2212024;64;20176;-70
2022/04/27 12:31:37;;;;;;;8.57;1.85;;;14.30;68.70;;;;;;2210755;64;20237;-69
2022/04/27 12:40:15;;;;;;;4.35;2.15;;;14.50;68.00;;;;;;2213607;64;20210;-71
2022/04/27 12:43:06;;;;;;;7.80;2.70;;;14.50;67.70;;;;;;2213580;64;20285;-72
2022/04/27 12:46:25;;;;;;;8.70;4.30;;;14.60;66.50;;;;;;2212948;64;20247;-70
2022/04/27 12:49:12;;;;;;;14.40;6.37;;;14.50;66.00;;;;;;2213168;64;20260;-71
2022/04/27 12:51:52;;;;;;;11.48;3.20;;;14.30;66.20;;;;;;2211668;64;20350;-71
2022/04/27 12:54:35;;;;;;;9.82;2.60;;;14.50;66.00;;;;;;2213636;64;20224;-71
2022/04/27 12:57:15;;;;;;;6.28;2.42;;;14.70;65.70;;;;;;2212886;64;20562;-71
2022/04/27 13:00:02;;;;;;;8.45;3.00;;;14.40;65.40;;;;;;2213555;64;20187;-71
2022/04/27 13:02:41;;;;;;;5.53;2.20;;;14.30;65.30;;;;;;2212023;64;20919;-69
2022/04/27 13:05:20;;;;;;;5.38;3.00;;;14.20;65.90;;;;;;2210221;64;20624;-69
2022/04/27 13:07:58;;;;;;;6.22;2.47;;;14.10;66.00;;;;;;2210690;64;20176;-69
2022/04/27 13:13:40;;;;;;;8.35;3.30;;;14.00;65.90;;;;;;2212411;64;20388;-68
2022/04/27 13:16:23;;;;;;;11.32;2.90;;;14.00;65.90;;;;;;2210754;64;20171;-68
2022/04/27 13:19:06;;;;;;;8.07;2.50;;;13.90;65.90;;;;;;2211636;64;20248;-68
2022/04/27 13:21:47;;;;;;;6.78;2.78;;;14.00;66.30;;;;;;1980517;64;15096694;-70
2022/04/27 13:24:27;;;;;;;5.88;2.83;;;14.00;66.80;;;;;;2214009;64;20253;-70
2022/04/27 13:27:06;;;;;;;7.72;2.45;;;14.10;66.50;;;;;;2215047;64;20669;-71
2022/04/27 13:29:47;;;;;;;8.57;2.80;;;14.10;66.30;;;;;;2215490;64;20312;-72
2022/04/27 13:32:28;;;;;;;10.20;3.30;;;14.00;65.70;;;;;;2214346;64;20316;-71
2022/04/27 13:35:11;;;;;;;6.90;2.97;;;14.10;65.70;;;;;;2212628;64;20156;-71
2022/04/27 13:37:55;;;;;;;4.47;2.10;;;13.70;65.50;;;;;;2212818;64;20261;-71
2022/04/27 13:40:35;;;;;;;9.85;3.08;;;13.60;65.80;;;;;;2212161;64;20189;-70
2022/04/27 13:43:14;;;;;;;6.22;2.38;;;13.60;66.20;;;;;;2212458;64;20214;-70
2022/04/27 13:45:55;;;;;;;7.15;2.45;;;13.60;66.60;;;;;;2212973;64;20172;-70
2022/04/27 13:48:40;;;;;;;7.85;2.30;;;13.60;66.30;;;;;;2212805;64;20252;-72
2022/04/27 13:51:21;;;;;;;9.10;2.67;;;13.50;66.50;;;;;;2213905;64;20190;-70
2022/04/27 13:54:04;;;;;;;5.82;2.65;;;13.50;66.60;;;;;;2213012;64;20716;-72
2022/04/27 13:56:59;;;;;;;11.40;2.97;;;13.80;67.10;;;;;;2213067;64;20224;-70
2022/04/27 13:59:38;;;;;;;8.07;2.70;;;13.60;67.10;;;;;;2212806;64;20254;-71
2022/04/27 14:02:15;;;;;;;4.97;2.53;;;13.70;67.10;;;;;;2213252;64;20189;-72
2022/04/27 14:04:53;;;;;;;5.88;2.35;;;13.80;66.80;;;;;;2213081;64;20283;-71
2022/04/27 14:07:35;;;;;;;5.95;2.85;;;13.90;66.60;;;;;;2212702;64;20687;-67
2022/04/27 14:10:14;;;;;;;8.85;2.50;;;14.00;66.70;;;;;;2213645;64;20210;-70
2022/04/27 14:18:41;;;;;;;7.25;2.65;;;14.10;65.70;;;;;;2211557;64;20190;-71
2022/04/27 14:21:19;;;;;;;7.15;2.70;;;14.20;65.80;;;;;;2213122;64;20736;-71
2022/04/27 14:23:59;;;;;;;6.70;2.63;;;14.30;65.90;;;;;;2213040;64;20182;-71
2022/04/27 14:26:36;;;;;;;5.43;2.28;;;14.40;65.80;;;;;;2212132;64;20169;-70
2022/04/27 14:29:13;;;;;;;9.75;2.90;;;14.60;64.70;;;;;;2211921;64;20248;-71
2022/04/27 14:31:49;;;;;;;8.82;3.10;;;14.80;64.80;;;;;;2213120;64;20258;-70